sensor_id;sensor_type;location;lat;lon;timestamp;pressure;altitude;pressure_sealevel;temperature;humidity
83246;BME280;73140;46.754;17.714;2024-01-06T00:01:49;98463.56;;;6.71;77.13
83246;BME280;73140;46.754;17.714;2024-01-06T00:04:15;98482.03;;;6.77;76.29
83246;BME280;73140;46.754;17.714;2024-01-06T00:06:42;98435.50;;;6.61;76.83
83246;BME280;73140;46.754;17.714;2024-01-06T00:09:08;98500.56;;;7.01;77.49
83246;BME280;73140;46.754;17.714;2024-01-06T00:11:35;98470.66;;;6.78;77.71
83246;BME280;73140;46.754;17.714;2024-01-06T00:14:01;98474.16;;;6.80;76.87
83246;BME280;73140;46.754;17.714;2024-01-06T00:16:27;98504.94;;;6.99;76.75
83246;BME280;73140;46.754;17.714;2024-01-06T00:18:53;98426.72;;;6.60;76.13
83246;BME280;73140;46.754;17.714;2024-01-06T00:21:19;98430.31;;;6.73;75.88
83246;BME280;73140;46.754;17.714;2024-01-06T00:23:46;98521.69;;;7.17;75.15
83246;BME280;73140;46.754;17.714;2024-01-06T00:26:12;98479.56;;;7.10;74.70
83246;BME280;73140;46.754;17.714;2024-01-06T00:28:39;98497.25;;;7.36;74.84
83246;BME280;73140;46.754;17.714;2024-01-06T00:31:05;98500.72;;;7.30;74.76
83246;BME280;73140;46.754;17.714;2024-01-06T00:33:31;98482.25;;;7.18;75.63
83246;BME280;73140;46.754;17.714;2024-01-06T00:35:57;98489.31;;;7.28;74.80
83246;BME280;73140;46.754;17.714;2024-01-06T00:38:24;98499.84;;;7.30;76.68
83246;BME280;73140;46.754;17.714;2024-01-06T00:40:51;98486.59;;;7.11;76.49
83246;BME280;73140;46.754;17.714;2024-01-06T00:43:17;98442.69;;;6.92;76.55
83246;BME280;73140;46.754;17.714;2024-01-06T00:45:43;98484.88;;;7.17;76.78
83246;BME280;73140;46.754;17.714;2024-01-06T00:48:09;98487.56;;;7.24;76.46
83246;BME280;73140;46.754;17.714;2024-01-06T00:50:35;98404.94;;;6.80;76.98
83246;BME280;73140;46.754;17.714;2024-01-06T00:53:01;98491.06;;;7.29;76.53
83246;BME280;73140;46.754;17.714;2024-01-06T00:55:27;98473.50;;;7.21;76.24
83246;BME280;73140;46.754;17.714;2024-01-06T00:57:55;98467.34;;;7.16;76.74
83246;BME280;73140;46.754;17.714;2024-01-06T01:00:21;98476.13;;;7.19;76.51
83246;BME280;73140;46.754;17.714;2024-01-06T01:02:48;98447.06;;;6.89;76.54
83246;BME280;73140;46.754;17.714;2024-01-06T01:05:14;98490.09;;;7.10;76.62
83246;BME280;73140;46.754;17.714;2024-01-06T01:07:40;98489.19;;;7.07;76.61
83246;BME280;73140;46.754;17.714;2024-01-06T01:10:06;98495.34;;;7.07;76.22
83246;BME280;73140;46.754;17.714;2024-01-06T01:12:33;98429.50;;;6.85;77.31
83246;BME280;73140;46.754;17.714;2024-01-06T01:15:00;98506.00;;;7.29;77.39
83246;BME280;73140;46.754;17.714;2024-01-06T01:17:26;98428.66;;;6.86;76.64
83246;BME280;73140;46.754;17.714;2024-01-06T01:19:52;98479.47;;;6.92;76.65
83246;BME280;73140;46.754;17.714;2024-01-06T01:22:18;98430.34;;;6.76;78.17
83246;BME280;73140;46.754;17.714;2024-01-06T01:24:44;98470.81;;;7.05;78.58
83246;BME280;73140;46.754;17.714;2024-01-06T01:27:10;98469.94;;;7.08;78.74
83246;BME280;73140;46.754;17.714;2024-01-06T01:29:36;98478.66;;;7.01;79.02
83246;BME280;73140;46.754;17.714;2024-01-06T01:32:05;98470.81;;;7.05;79.91
83246;BME280;73140;46.754;17.714;2024-01-06T01:34:31;98457.59;;;6.98;78.62
83246;BME280;73140;46.754;17.714;2024-01-06T01:36:57;98412.78;;;6.69;79.88
83246;BME280;73140;46.754;17.714;2024-01-06T01:39:23;98414.50;;;6.67;79.73
83246;BME280;73140;46.754;17.714;2024-01-06T01:41:49;98435.63;;;6.81;80.55
83246;BME280;73140;46.754;17.714;2024-01-06T01:44:16;98399.56;;;6.54;80.33
83246;BME280;73140;46.754;17.714;2024-01-06T01:46:42;98439.16;;;6.87;79.51
83246;BME280;73140;46.754;17.714;2024-01-06T01:49:09;98443.50;;;6.84;80.37
83246;BME280;73140;46.754;17.714;2024-01-06T01:51:36;98439.97;;;6.77;81.12
83246;BME280;73140;46.754;17.714;2024-01-06T01:54:04;98461.94;;;6.88;80.78
83246;BME280;73140;46.754;17.714;2024-01-06T01:56:31;98460.19;;;6.90;80.29
83246;BME280;73140;46.754;17.714;2024-01-06T01:59:01;98447.91;;;6.88;80.18
83246;BME280;73140;46.754;17.714;2024-01-06T02:01:30;98440.03;;;6.88;79.95
83246;BME280;73140;46.754;17.714;2024-01-06T02:03:57;98352.19;;;6.42;81.97
83246;BME280;73140;46.754;17.714;2024-01-06T02:06:25;98433.81;;;6.75;81.44
83246;BME280;73140;46.754;17.714;2024-01-06T02:08:51;98406.66;;;6.70;81.62
83246;BME280;73140;46.754;17.714;2024-01-06T02:11:17;98429.44;;;6.76;82.07
83246;BME280;73140;46.754;17.714;2024-01-06T02:13:43;98435.66;;;6.91;82.01
83246;BME280;73140;46.754;17.714;2024-01-06T02:16:09;98413.72;;;6.82;80.83
83246;BME280;73140;46.754;17.714;2024-01-06T02:18:35;98443.59;;;6.99;81.95
83246;BME280;73140;46.754;17.714;2024-01-06T02:21:02;98405.84;;;6.86;81.80
83246;BME280;73140;46.754;17.714;2024-01-06T02:23:30;98378.63;;;6.72;83.17
83246;BME280;73140;46.754;17.714;2024-01-06T02:25:56;98326.03;;;6.58;83.44
83246;BME280;73140;46.754;17.714;2024-01-06T02:28:22;98412.03;;;6.93;82.76
83246;BME280;73140;46.754;17.714;2024-01-06T02:30:49;98393.59;;;6.88;83.06
83246;BME280;73140;46.754;17.714;2024-01-06T02:33:15;98366.31;;;6.66;84.66
83246;BME280;73140;46.754;17.714;2024-01-06T02:35:41;98356.63;;;6.55;84.25
83246;BME280;73140;46.754;17.714;2024-01-06T02:38:07;98390.00;;;6.70;85.53
83246;BME280;73140;46.754;17.714;2024-01-06T02:40:35;98393.50;;;6.72;84.39
83246;BME280;73140;46.754;17.714;2024-01-06T02:43:02;98416.25;;;6.68;84.75
83246;BME280;73140;46.754;17.714;2024-01-06T02:45:28;98417.13;;;6.64;86.67
83246;BME280;73140;46.754;17.714;2024-01-06T02:47:54;98414.56;;;6.73;87.23
83246;BME280;73140;46.754;17.714;2024-01-06T02:50:20;98439.06;;;6.75;87.20
83246;BME280;73140;46.754;17.714;2024-01-06T02:52:46;98410.09;;;6.60;88.75
83246;BME280;73140;46.754;17.714;2024-01-06T02:55:13;98356.56;;;6.40;88.44
83246;BME280;73140;46.754;17.714;2024-01-06T02:57:40;98373.22;;;6.45;89.66
83246;BME280;73140;46.754;17.714;2024-01-06T03:00:07;98339.00;;;6.33;90.02
83246;BME280;73140;46.754;17.714;2024-01-06T03:02:34;98413.69;;;6.76;89.57
83246;BME280;73140;46.754;17.714;2024-01-06T03:05:01;98423.44;;;6.93;89.55
83246;BME280;73140;46.754;17.714;2024-01-06T03:07:27;98353.16;;;6.56;89.42
83246;BME280;73140;46.754;17.714;2024-01-06T03:09:53;98405.81;;;6.74;89.75
83246;BME280;73140;46.754;17.714;2024-01-06T03:12:19;98411.16;;;6.95;88.67
83246;BME280;73140;46.754;17.714;2024-01-06T03:14:47;98418.16;;;6.92;88.69
83246;BME280;73140;46.754;17.714;2024-01-06T03:17:13;98372.53;;;6.76;89.98
83246;BME280;73140;46.754;17.714;2024-01-06T03:19:39;98408.50;;;6.91;90.35
83246;BME280;73140;46.754;17.714;2024-01-06T03:22:05;98381.25;;;6.72;90.07
83246;BME280;73140;46.754;17.714;2024-01-06T03:24:31;98398.00;;;6.91;90.10
83246;BME280;73140;46.754;17.714;2024-01-06T03:26:57;98383.09;;;6.94;90.13
83246;BME280;73140;46.754;17.714;2024-01-06T03:29:24;98416.47;;;7.01;90.97
83246;BME280;73140;46.754;17.714;2024-01-06T03:31:51;98412.03;;;6.90;89.57
83246;BME280;73140;46.754;17.714;2024-01-06T03:34:17;98397.94;;;6.80;90.48
83246;BME280;73140;46.754;17.714;2024-01-06T03:36:43;98398.81;;;6.79;91.21
83246;BME280;73140;46.754;17.714;2024-01-06T03:39:09;98398.78;;;6.76;89.83
83246;BME280;73140;46.754;17.714;2024-01-06T03:41:36;98416.47;;;7.01;88.99
83246;BME280;73140;46.754;17.714;2024-01-06T03:44:02;98357.63;;;6.74;88.81
83246;BME280;73140;46.754;17.714;2024-01-06T03:46:28;98344.47;;;6.69;88.61
83246;BME280;73140;46.754;17.714;2024-01-06T03:48:55;98397.22;;;7.11;89.55
83246;BME280;73140;46.754;17.714;2024-01-06T03:51:21;98419.13;;;7.13;89.59
83246;BME280;73140;46.754;17.714;2024-01-06T03:53:47;98319.03;;;6.57;89.31
83246;BME280;73140;46.754;17.714;2024-01-06T03:56:13;98391.91;;;7.02;89.72
83246;BME280;73140;46.754;17.714;2024-01-06T03:58:39;98344.53;;;6.81;90.67
83246;BME280;73140;46.754;17.714;2024-01-06T04:01:05;98375.22;;;6.91;90.46
83246;BME280;73140;46.754;17.714;2024-01-06T04:03:31;98400.69;;;7.04;90.76
83246;BME280;73140;46.754;17.714;2024-01-06T04:05:59;98334.84;;;6.79;89.74
83246;BME280;73140;46.754;17.714;2024-01-06T04:08:25;98352.34;;;6.72;91.30
83246;BME280;73140;46.754;17.714;2024-01-06T04:10:51;98376.00;;;6.75;91.66
83246;BME280;73140;46.754;17.714;2024-01-06T04:13:17;98369.84;;;6.64;92.39
83246;BME280;73140;46.754;17.714;2024-01-06T04:15:43;98401.44;;;6.79;92.03
83246;BME280;73140;46.754;17.714;2024-01-06T04:18:09;98348.78;;;6.56;92.24
83246;BME280;73140;46.754;17.714;2024-01-06T04:20:36;98332.97;;;6.49;91.88
83246;BME280;73140;46.754;17.714;2024-01-06T04:23:04;98377.78;;;6.82;93.26
83246;BME280;73140;46.754;17.714;2024-01-06T04:25:30;98319.78;;;6.34;92.81
83246;BME280;73140;46.754;17.714;2024-01-06T04:27:56;98383.06;;;6.82;92.97
83246;BME280;73140;46.754;17.714;2024-01-06T04:30:22;98278.63;;;6.30;93.92
83246;BME280;73140;46.754;17.714;2024-01-06T04:32:48;98275.09;;;6.29;93.50
83246;BME280;73140;46.754;17.714;2024-01-06T04:35:14;98285.66;;;6.38;92.40
83246;BME280;73140;46.754;17.714;2024-01-06T04:37:40;98358.47;;;6.71;92.72
83246;BME280;73140;46.754;17.714;2024-01-06T04:40:09;98274.22;;;6.29;93.58
83246;BME280;73140;46.754;17.714;2024-01-06T04:42:35;98281.25;;;6.36;93.27
83246;BME280;73140;46.754;17.714;2024-01-06T04:45:01;98357.66;;;6.81;94.63
83246;BME280;73140;46.754;17.714;2024-01-06T04:47:28;98351.56;;;6.91;93.16
83246;BME280;73140;46.754;17.714;2024-01-06T04:49:56;98322.56;;;6.69;93.48
83246;BME280;73140;46.754;17.714;2024-01-06T04:52:22;98353.28;;;6.86;93.55
83246;BME280;73140;46.754;17.714;2024-01-06T04:54:48;98299.69;;;6.45;94.10
83246;BME280;73140;46.754;17.714;2024-01-06T04:57:15;98345.28;;;6.57;95.29
83246;BME280;73140;46.754;17.714;2024-01-06T04:59:42;98310.09;;;6.25;94.15
83246;BME280;73140;46.754;17.714;2024-01-06T05:02:08;98366.34;;;6.68;94.44
83246;BME280;73140;46.754;17.714;2024-01-06T05:04:34;98300.53;;;6.38;92.98
83246;BME280;73140;46.754;17.714;2024-01-06T05:07:00;98305.84;;;6.50;93.27
83246;BME280;73140;46.754;17.714;2024-01-06T05:09:26;98274.22;;;6.29;92.81
83246;BME280;73140;46.754;17.714;2024-01-06T05:11:52;98303.22;;;6.48;93.70
83246;BME280;73140;46.754;17.714;2024-01-06T05:14:19;98316.31;;;6.41;92.84
83246;BME280;73140;46.754;17.714;2024-01-06T05:16:46;98305.75;;;6.33;92.69
83246;BME280;73140;46.754;17.714;2024-01-06T05:19:12;98302.22;;;6.27;92.89
83246;BME280;73140;46.754;17.714;2024-01-06T05:21:45;98332.06;;;6.38;93.95
83246;BME280;73140;46.754;17.714;2024-01-06T05:24:11;98309.22;;;6.23;93.18
83246;BME280;73140;46.754;17.714;2024-01-06T05:26:37;98360.09;;;6.48;93.15
83246;BME280;73140;46.754;17.714;2024-01-06T05:29:03;98282.03;;;6.15;93.86
83246;BME280;73140;46.754;17.714;2024-01-06T05:31:30;98296.09;;;6.28;93.83
83246;BME280;73140;46.754;17.714;2024-01-06T05:33:56;98360.19;;;6.60;93.72
83246;BME280;73140;46.754;17.714;2024-01-06T05:36:22;98311.03;;;6.38;94.15
83246;BME280;73140;46.754;17.714;2024-01-06T05:38:48;98281.16;;;6.17;94.28
83246;BME280;73140;46.754;17.714;2024-01-06T05:41:14;98323.31;;;6.39;93.56
83246;BME280;73140;46.754;17.714;2024-01-06T05:43:40;98324.16;;;6.35;93.95
83246;BME280;73140;46.754;17.714;2024-01-06T05:46:07;98318.91;;;6.35;93.82
83246;BME280;73140;46.754;17.714;2024-01-06T05:48:34;98375.91;;;6.54;94.85
83246;BME280;73140;46.754;17.714;2024-01-06T05:51:00;98346.09;;;6.46;94.01
83246;BME280;73140;46.754;17.714;2024-01-06T05:53:26;98308.41;;;6.36;93.38
83246;BME280;73140;46.754;17.714;2024-01-06T05:55:52;98355.78;;;6.57;94.41
83246;BME280;73140;46.754;17.714;2024-01-06T05:58:18;98359.31;;;6.61;94.74
83246;BME280;73140;46.754;17.714;2024-01-06T06:00:44;98368.94;;;6.63;94.37
83246;BME280;73140;46.754;17.714;2024-01-06T06:03:12;98288.19;;;6.22;94.66
83246;BME280;73140;46.754;17.714;2024-01-06T06:05:40;98277.63;;;6.15;94.38
83246;BME280;73140;46.754;17.714;2024-01-06T06:08:06;98297.88;;;6.33;93.93
83246;BME280;73140;46.754;17.714;2024-01-06T06:10:32;98345.28;;;6.59;93.47
83246;BME280;73140;46.754;17.714;2024-01-06T06:13:07;98272.38;;;6.12;93.76
83246;BME280;73140;46.754;17.714;2024-01-06T06:15:36;98365.44;;;6.60;94.02
83246;BME280;73140;46.754;17.714;2024-01-06T06:18:02;98367.19;;;6.58;94.27
83246;BME280;73140;46.754;17.714;2024-01-06T06:20:28;98347.81;;;6.41;94.15
83246;BME280;73140;46.754;17.714;2024-01-06T06:22:55;98301.31;;;6.25;93.60
83246;BME280;73140;46.754;17.714;2024-01-06T06:25:21;98304.81;;;6.21;94.37
83246;BME280;73140;46.754;17.714;2024-01-06T06:27:47;98310.03;;;6.16;94.15
83246;BME280;73140;46.754;17.714;2024-01-06T06:30:14;98294.34;;;6.28;93.88
83246;BME280;73140;46.754;17.714;2024-01-06T06:32:40;98361.94;;;6.64;94.25
83246;BME280;73140;46.754;17.714;2024-01-06T06:35:07;98351.38;;;6.52;92.98
83246;BME280;73140;46.754;17.714;2024-01-06T06:37:33;98355.66;;;6.33;94.46
83246;BME280;73140;46.754;17.714;2024-01-06T06:40:01;98372.38;;;6.46;93.74
83246;BME280;73140;46.754;17.714;2024-01-06T06:42:27;98266.03;;;5.85;94.84
83246;BME280;73140;46.754;17.714;2024-01-06T06:44:53;98336.34;;;6.28;94.43
83246;BME280;73140;46.754;17.714;2024-01-06T06:47:19;98278.44;;;5.99;94.56
83246;BME280;73140;46.754;17.714;2024-01-06T06:49:45;98329.38;;;6.32;95.13
83246;BME280;73140;46.754;17.714;2024-01-06T06:52:11;98286.41;;;6.11;94.62
83246;BME280;73140;46.754;17.714;2024-01-06T06:54:38;98347.00;;;6.49;94.80
83246;BME280;73140;46.754;17.714;2024-01-06T06:57:05;98312.72;;;6.28;94.40
83246;BME280;73140;46.754;17.714;2024-01-06T06:59:31;98252.06;;;5.86;93.74
83246;BME280;73140;46.754;17.714;2024-01-06T07:01:57;98349.59;;;6.45;93.00
83246;BME280;73140;46.754;17.714;2024-01-06T07:04:23;98346.91;;;6.37;94.13
83246;BME280;73140;46.754;17.714;2024-01-06T07:06:51;98310.84;;;6.06;93.92
83246;BME280;73140;46.754;17.714;2024-01-06T07:09:17;98364.44;;;6.40;94.39
83246;BME280;73140;46.754;17.714;2024-01-06T07:11:43;98375.88;;;6.46;93.73
83246;BME280;73140;46.754;17.714;2024-01-06T07:14:11;98355.69;;;6.44;93.76
83246;BME280;73140;46.754;17.714;2024-01-06T07:16:37;98367.13;;;6.49;93.16
83246;BME280;73140;46.754;17.714;2024-01-06T07:19:03;98382.00;;;6.47;93.21
83246;BME280;73140;46.754;17.714;2024-01-06T07:21:31;98376.72;;;6.45;93.49
83246;BME280;73140;46.754;17.714;2024-01-06T07:23:57;98310.88;;;6.07;92.84
83246;BME280;73140;46.754;17.714;2024-01-06T07:26:23;98346.81;;;6.19;94.40
83246;BME280;73140;46.754;17.714;2024-01-06T07:28:49;98317.75;;;5.93;93.66
83246;BME280;73140;46.754;17.714;2024-01-06T07:31:17;98318.66;;;5.98;94.61
83246;BME280;73140;46.754;17.714;2024-01-06T07:33:43;98357.38;;;6.27;93.88
83246;BME280;73140;46.754;17.714;2024-01-06T07:36:09;98310.81;;;6.04;94.16
83246;BME280;73140;46.754;17.714;2024-01-06T07:38:36;98323.13;;;6.10;94.51
83246;BME280;73140;46.754;17.714;2024-01-06T07:41:02;98353.84;;;6.26;94.36
83246;BME280;73140;46.754;17.714;2024-01-06T07:43:30;98311.75;;;6.11;93.91
83246;BME280;73140;46.754;17.714;2024-01-06T07:45:56;98378.50;;;6.49;93.80
83246;BME280;73140;46.754;17.714;2024-01-06T07:48:24;98382.88;;;6.46;93.80
83246;BME280;73140;46.754;17.714;2024-01-06T07:50:50;98385.50;;;6.49;94.12
83246;BME280;73140;46.754;17.714;2024-01-06T07:53:16;98309.13;;;6.11;93.97
83246;BME280;73140;46.754;17.714;2024-01-06T07:55:42;98252.06;;;5.86;93.99
83246;BME280;73140;46.754;17.714;2024-01-06T07:58:08;98331.16;;;6.34;93.82
83246;BME280;73140;46.754;17.714;2024-01-06T08:00:34;98286.41;;;6.11;93.44
83246;BME280;73140;46.754;17.714;2024-01-06T08:03:00;98365.38;;;6.51;93.82
83246;BME280;73140;46.754;17.714;2024-01-06T08:05:27;98291.69;;;6.21;94.06
83246;BME280;73140;46.754;17.714;2024-01-06T08:07:53;98322.41;;;6.37;94.05
83246;BME280;73140;46.754;17.714;2024-01-06T08:10:19;98365.38;;;6.49;93.48
83246;BME280;73140;46.754;17.714;2024-01-06T08:12:46;98306.56;;;6.22;93.64
83246;BME280;73140;46.754;17.714;2024-01-06T08:15:12;98280.19;;;5.99;94.66
83246;BME280;73140;46.754;17.714;2024-01-06T08:17:38;98377.66;;;6.55;93.73
83246;BME280;73140;46.754;17.714;2024-01-06T08:20:07;98353.06;;;6.38;94.11
83246;BME280;73140;46.754;17.714;2024-01-06T08:22:35;98299.53;;;6.17;94.56
83246;BME280;73140;46.754;17.714;2024-01-06T08:25:01;98317.09;;;6.23;94.52
83246;BME280;73140;46.754;17.714;2024-01-06T08:27:28;98310.97;;;6.26;93.84
83246;BME280;73140;46.754;17.714;2024-01-06T08:29:54;98338.19;;;6.38;94.28
83246;BME280;73140;46.754;17.714;2024-01-06T08:32:20;98326.84;;;6.47;94.53
83246;BME280;73140;46.754;17.714;2024-01-06T08:34:46;98342.63;;;6.47;94.93
83246;BME280;73140;46.754;17.714;2024-01-06T08:37:13;98337.31;;;6.38;95.13
83246;BME280;73140;46.754;17.714;2024-01-06T08:39:41;98394.38;;;6.66;95.40
83246;BME280;73140;46.754;17.714;2024-01-06T08:42:07;98354.84;;;6.51;94.88
83246;BME280;73140;46.754;17.714;2024-01-06T08:44:33;98355.78;;;6.56;94.42
83246;BME280;73140;46.754;17.714;2024-01-06T08:46:59;98335.59;;;6.49;94.75
83246;BME280;73140;46.754;17.714;2024-01-06T08:49:25;98373.38;;;6.75;94.87
83246;BME280;73140;46.754;17.714;2024-01-06T08:51:54;98337.38;;;6.53;94.05
83246;BME280;73140;46.754;17.714;2024-01-06T08:54:20;98405.91;;;6.95;93.81
83246;BME280;73140;46.754;17.714;2024-01-06T08:56:48;98346.25;;;6.76;93.49
83246;BME280;73140;46.754;17.714;2024-01-06T08:59:14;98311.13;;;6.56;93.57
83246;BME280;73140;46.754;17.714;2024-01-06T09:01:40;98379.56;;;6.86;93.99
83246;BME280;73140;46.754;17.714;2024-01-06T09:04:06;98358.56;;;6.89;94.82
83246;BME280;73140;46.754;17.714;2024-01-06T09:06:33;98282.22;;;6.59;94.64
83246;BME280;73140;46.754;17.714;2024-01-06T09:08:59;98362.06;;;6.85;94.74
83246;BME280;73140;46.754;17.714;2024-01-06T09:11:25;98351.44;;;6.67;95.87
83246;BME280;73140;46.754;17.714;2024-01-06T09:13:52;98354.09;;;6.62;96.03
83246;BME280;73140;46.754;17.714;2024-01-06T09:16:18;98371.66;;;6.79;96.83
83246;BME280;73140;46.754;17.714;2024-01-06T09:18:44;98364.69;;;6.85;95.55
83246;BME280;73140;46.754;17.714;2024-01-06T09:21:10;98290.09;;;6.56;95.48
83246;BME280;73140;46.754;17.714;2024-01-06T09:23:37;98363.88;;;7.01;95.98
83246;BME280;73140;46.754;17.714;2024-01-06T09:26:03;98367.41;;;7.11;95.37
83246;BME280;73140;46.754;17.714;2024-01-06T09:28:29;98307.72;;;6.74;95.20
83246;BME280;73140;46.754;17.714;2024-01-06T09:30:57;98374.41;;;7.10;94.54
83246;BME280;73140;46.754;17.714;2024-01-06T09:33:23;98329.69;;;7.00;94.63
83246;BME280;73140;46.754;17.714;2024-01-06T09:35:49;98305.97;;;6.77;94.61
83246;BME280;73140;46.754;17.714;2024-01-06T09:38:16;98363.91;;;7.07;95.41
83246;BME280;73140;46.754;17.714;2024-01-06T09:40:44;98328.78;;;6.90;94.28
83246;BME280;73140;46.754;17.714;2024-01-06T09:43:10;98262.13;;;6.58;94.82
83246;BME280;73140;46.754;17.714;2024-01-06T09:45:37;98365.63;;;6.99;95.26
83246;BME280;73140;46.754;17.714;2024-01-06T09:48:10;98248.84;;;6.32;96.02
83246;BME280;73140;46.754;17.714;2024-01-06T09:50:38;98347.16;;;6.81;95.50
83246;BME280;73140;46.754;17.714;2024-01-06T09:53:06;98298.00;;;6.54;95.19
83246;BME280;73140;46.754;17.714;2024-01-06T09:55:34;98360.41;;;7.05;94.79
83246;BME280;73140;46.754;17.714;2024-01-06T09:58:01;98341.06;;;6.99;94.71
83246;BME280;73140;46.754;17.714;2024-01-06T10:00:27;98356.00;;;7.06;95.37
83246;BME280;73140;46.754;17.714;2024-01-06T10:02:54;98280.53;;;6.62;95.37
83246;BME280;73140;46.754;17.714;2024-01-06T10:05:28;98249.75;;;6.33;94.87
83246;BME280;73140;46.754;17.714;2024-01-06T10:07:54;98306.84;;;6.79;96.02
83246;BME280;73140;46.754;17.714;2024-01-06T10:10:22;98334.88;;;6.80;96.30
83246;BME280;73140;46.754;17.714;2024-01-06T10:12:48;98268.25;;;6.58;95.94
83246;BME280;73140;46.754;17.714;2024-01-06T10:15:20;98356.00;;;7.01;96.18
83246;BME280;73140;46.754;17.714;2024-01-06T10:17:46;98327.00;;;6.86;96.33
83246;BME280;73140;46.754;17.714;2024-01-06T10:20:12;98313.00;;;6.84;95.61
83246;BME280;73140;46.754;17.714;2024-01-06T10:22:42;98277.88;;;6.64;95.94
83246;BME280;73140;46.754;17.714;2024-01-06T10:25:11;98354.22;;;7.02;96.54
83246;BME280;73140;46.754;17.714;2024-01-06T10:27:38;98266.50;;;6.62;96.11
83246;BME280;73140;46.754;17.714;2024-01-06T10:30:06;98228.75;;;6.36;96.53
83246;BME280;73140;46.754;17.714;2024-01-06T10:32:36;98289.28;;;6.71;97.54
83246;BME280;73140;46.754;17.714;2024-01-06T10:35:02;98305.13;;;6.90;97.04
83246;BME280;73140;46.754;17.714;2024-01-06T10:37:41;98276.19;;;6.78;95.38
83246;BME280;73140;46.754;17.714;2024-01-06T10:40:11;98305.13;;;6.90;96.07
83246;BME280;73140;46.754;17.714;2024-01-06T10:42:38;98209.53;;;6.52;95.60
83246;BME280;73140;46.754;17.714;2024-01-06T10:45:07;98317.47;;;7.12;96.16
83246;BME280;73140;46.754;17.714;2024-01-06T10:47:36;98299.94;;;7.13;96.22
83246;BME280;73140;46.754;17.714;2024-01-06T10:50:02;98285.00;;;6.92;96.86
83246;BME280;73140;46.754;17.714;2024-01-06T10:52:32;98281.41;;;6.75;96.58
83246;BME280;73140;46.754;17.714;2024-01-06T10:54:58;98253.38;;;6.65;96.03
83246;BME280;73140;46.754;17.714;2024-01-06T10:57:27;98259.50;;;6.62;96.40
83246;BME280;73140;46.754;17.714;2024-01-06T10:59:58;98239.28;;;6.48;96.93
83246;BME280;73140;46.754;17.714;2024-01-06T11:02:45;98302.53;;;6.96;97.34
83246;BME280;73140;46.754;17.714;2024-01-06T11:05:15;98286.78;;;7.01;96.75
83246;BME280;73140;46.754;17.714;2024-01-06T11:07:43;98230.59;;;6.58;96.67
83246;BME280;73140;46.754;17.714;2024-01-06T11:10:15;98300.75;;;6.95;97.26
83246;BME280;73140;46.754;17.714;2024-01-06T11:12:44;98274.44;;;6.83;97.46
83246;BME280;73140;46.754;17.714;2024-01-06T11:15:10;98231.53;;;6.74;96.80
83246;BME280;73140;46.754;17.714;2024-01-06T11:17:52;98296.41;;;7.00;96.72
83246;BME280;73140;46.754;17.714;2024-01-06T11:20:27;98295.50;;;6.95;98.49
83246;BME280;73140;46.754;17.714;2024-01-06T11:22:53;98239.38;;;6.72;98.62
83246;BME280;73140;46.754;17.714;2024-01-06T11:25:20;98250.78;;;6.77;97.24
83246;BME280;73140;46.754;17.714;2024-01-06T11:27:49;98294.63;;;6.98;96.72
83246;BME280;73140;46.754;17.714;2024-01-06T11:30:25;98297.28;;;6.99;97.90
83246;BME280;73140;46.754;17.714;2024-01-06T11:32:52;98160.47;;;6.36;98.78
83246;BME280;73140;46.754;17.714;2024-01-06T11:35:20;98279.78;;;7.13;97.79
83246;BME280;73140;46.754;17.714;2024-01-06T11:37:55;98211.38;;;6.74;98.48
83246;BME280;73140;46.754;17.714;2024-01-06T11:40:25;98228.91;;;6.78;97.26
83246;BME280;73140;46.754;17.714;2024-01-06T11:43:00;98252.53;;;6.72;97.96
83246;BME280;73140;46.754;17.714;2024-01-06T11:45:29;98199.91;;;6.49;99.08
83246;BME280;73140;46.754;17.714;2024-01-06T11:47:57;98287.69;;;7.09;98.81
83246;BME280;73140;46.754;17.714;2024-01-06T11:50:26;98241.16;;;6.82;97.70
83246;BME280;73140;46.754;17.714;2024-01-06T11:52:55;98303.47;;;7.30;97.80
83246;BME280;73140;46.754;17.714;2024-01-06T11:55:21;98230.66;;;6.85;97.65
83246;BME280;73140;46.754;17.714;2024-01-06T11:57:48;98272.78;;;7.12;97.09
83246;BME280;73140;46.754;17.714;2024-01-06T12:00:18;98301.72;;;7.28;97.36
83246;BME280;73140;46.754;17.714;2024-01-06T12:02:45;98242.94;;;6.98;97.37
83246;BME280;73140;46.754;17.714;2024-01-06T12:05:14;98282.44;;;7.23;96.83
83246;BME280;73140;46.754;17.714;2024-01-06T12:07:41;98279.78;;;7.20;96.83
83246;BME280;73140;46.754;17.714;2024-01-06T12:10:09;98281.56;;;7.27;98.18
83246;BME280;73140;46.754;17.714;2024-01-06T12:12:37;98268.44;;;7.36;97.04
83246;BME280;73140;46.754;17.714;2024-01-06T12:15:06;98259.66;;;7.37;97.06
83246;BME280;73140;46.754;17.714;2024-01-06T12:17:39;98235.97;;;7.22;97.34
83246;BME280;73140;46.754;17.714;2024-01-06T12:20:06;98254.38;;;7.29;96.64
83246;BME280;73140;46.754;17.714;2024-01-06T12:22:34;98172.81;;;6.82;97.16
83246;BME280;73140;46.754;17.714;2024-01-06T12:25:01;98168.44;;;6.75;97.74
83246;BME280;73140;46.754;17.714;2024-01-06T12:27:30;98216.69;;;7.01;97.67
83246;BME280;73140;46.754;17.714;2024-01-06T12:29:57;98285.91;;;7.22;97.31
83246;BME280;73140;46.754;17.714;2024-01-06T12:32:23;98223.66;;;6.84;97.47
83246;BME280;73140;46.754;17.714;2024-01-06T12:34:53;98282.41;;;7.26;98.01
83246;BME280;73140;46.754;17.714;2024-01-06T12:37:19;98271.91;;;7.26;96.56
83246;BME280;73140;46.754;17.714;2024-01-06T12:39:47;98279.78;;;7.23;97.34
83246;BME280;73140;46.754;17.714;2024-01-06T12:42:15;98255.25;;;7.24;97.30
83246;BME280;73140;46.754;17.714;2024-01-06T12:44:42;98281.56;;;7.24;97.11
83246;BME280;73140;46.754;17.714;2024-01-06T12:47:08;98294.72;;;7.37;96.17
83246;BME280;73140;46.754;17.714;2024-01-06T12:49:35;98298.22;;;7.33;96.41
83246;BME280;73140;46.754;17.714;2024-01-06T12:52:12;98213.16;;;6.99;96.91
83246;BME280;73140;46.754;17.714;2024-01-06T12:54:39;98268.44;;;7.43;98.24
83246;BME280;73140;46.754;17.714;2024-01-06T12:57:08;98257.00;;;7.19;97.63
83246;BME280;73140;46.754;17.714;2024-01-06T12:59:35;98277.19;;;7.42;97.16